Time;durP1;ratioP1;P1;durP2;ratioP2;P2;SDS_P1;SDS_P2;PMS_P1;PMS_P2;Temp;Humidity;BMP_temperature;BMP_pressure;BME280_temperature;BME280_humidity;BME280_pressure;Samples;Min_cycle;Max_cycle;Signal;HPM_P1;HPM_P2
2023/09/16 00:01:59;;;;;;;17.38;12.77;;;;;;;;;;4988566;28;25074;-69
2023/09/16 00:04:26;;;;;;;18.92;12.98;;;;;;;;;;4993443;28;25065;-71
2023/09/16 00:06:52;;;;;;;18.13;13.07;;;;;;;;;;4992303;28;25110;-71
2023/09/16 00:09:17;;;;;;;20.70;13.85;;;;;;;;;;4992352;28;25075;-71
2023/09/16 00:11:43;;;;;;;20.48;13.65;;;;;;;;;;4993346;28;25060;-71
2023/09/16 00:14:09;;;;;;;21.95;13.98;;;;;;;;;;4986198;28;25076;-73
2023/09/16 00:16:35;;;;;;;19.63;12.90;;;;;;;;;;4992794;28;25062;-72
2023/09/16 00:19:03;;;;;;;18.80;13.80;;;;;;;;;;4998959;28;25130;-70
2023/09/16 00:21:28;;;;;;;17.77;12.75;;;;;;;;;;4994168;28;25085;-70
2023/09/16 00:23:54;;;;;;;16.05;12.85;;;;;;;;;;4986467;28;25108;-72
2023/09/16 00:26:21;;;;;;;21.13;12.90;;;;;;;;;;4994110;28;25065;-71
2023/09/16 00:28:47;;;;;;;17.77;12.93;;;;;;;;;;4992705;28;25058;-72
2023/09/16 00:31:13;;;;;;;15.88;12.32;;;;;;;;;;4992678;28;25107;-72
2023/09/16 00:33:39;;;;;;;19.80;12.70;;;;;;;;;;4989444;28;25125;-72
2023/09/16 00:36:05;;;;;;;16.77;12.70;;;;;;;;;;4991669;28;25071;-71
2023/09/16 00:38:31;;;;;;;21.08;13.40;;;;;;;;;;4995033;28;25154;-72
2023/09/16 00:40:57;;;;;;;17.13;13.60;;;;;;;;;;4996131;28;25074;-73
2023/09/16 00:43:23;;;;;;;16.70;12.10;;;;;;;;;;4987356;28;25160;-72
2023/09/16 00:45:49;;;;;;;15.63;12.32;;;;;;;;;;4993795;28;25100;-71
2023/09/16 00:48:20;;;;;;;19.35;13.32;;;;;;;;;;4996108;28;25108;-72
2023/09/16 00:50:46;;;;;;;23.20;13.55;;;;;;;;;;4993529;28;25065;-72
2023/09/16 00:53:13;;;;;;;20.35;13.32;;;;;;;;;;4992520;28;25077;-71
2023/09/16 00:55:39;;;;;;;18.60;13.68;;;;;;;;;;4988530;28;25116;-71
2023/09/16 00:58:06;;;;;;;19.35;13.68;;;;;;;;;;4992271;28;25067;-70
2023/09/16 01:00:32;;;;;;;20.55;13.57;;;;;;;;;;4994704;28;25100;-72
2023/09/16 01:02:59;;;;;;;20.17;14.00;;;;;;;;;;4991488;28;25075;-70
2023/09/16 01:05:25;;;;;;;21.52;14.10;;;;;;;;;;4989171;28;25055;-72
2023/09/16 01:07:51;;;;;;;19.15;13.77;;;;;;;;;;4993964;28;25109;-72
2023/09/16 01:10:20;;;;;;;23.10;14.23;;;;;;;;;;4992567;28;25122;-72
2023/09/16 01:12:48;;;;;;;19.70;13.85;;;;;;;;;;4998946;28;25069;-72
2023/09/16 01:15:14;;;;;;;22.25;15.23;;;;;;;;;;4991729;28;25057;-72
2023/09/16 01:17:46;;;;;;;18.25;14.27;;;;;;;;;;4990702;28;25065;-72
2023/09/16 01:20:13;;;;;;;22.48;14.82;;;;;;;;;;4998015;28;25147;-71
2023/09/16 01:22:44;;;;;;;23.38;15.35;;;;;;;;;;4987844;28;25313;-71
2023/09/16 01:25:11;;;;;;;22.95;14.73;;;;;;;;;;4992046;28;25047;-71
2023/09/16 01:27:37;;;;;;;21.50;15.07;;;;;;;;;;4990994;28;25086;-72
2023/09/16 01:30:05;;;;;;;21.27;15.48;;;;;;;;;;4991507;28;25071;-72
2023/09/16 01:32:34;;;;;;;19.33;14.10;;;;;;;;;;4989929;28;25148;-71
2023/09/16 01:35:06;;;;;;;25.58;15.85;;;;;;;;;;4991601;28;25060;-73
2023/09/16 01:37:32;;;;;;;20.05;14.90;;;;;;;;;;4990137;28;25145;-71
2023/09/16 01:39:59;;;;;;;19.13;15.25;;;;;;;;;;4992815;28;25112;-70
2023/09/16 01:42:27;;;;;;;28.52;15.73;;;;;;;;;;4985342;28;25103;-74
2023/09/16 01:44:54;;;;;;;21.45;15.55;;;;;;;;;;4991195;28;25097;-71
2023/09/16 01:47:20;;;;;;;21.48;16.15;;;;;;;;;;4989386;28;25070;-73
2023/09/16 01:49:46;;;;;;;20.38;15.90;;;;;;;;;;4993112;28;25076;-72
2023/09/16 01:52:12;;;;;;;20.42;14.88;;;;;;;;;;4990865;28;25068;-72
2023/09/16 01:54:38;;;;;;;22.05;15.98;;;;;;;;;;4992174;28;25057;-72
2023/09/16 01:57:04;;;;;;;20.05;15.50;;;;;;;;;;4997396;28;25060;-71
2023/09/16 01:59:30;;;;;;;22.52;16.58;;;;;;;;;;4990950;28;25091;-71
2023/09/16 02:01:56;;;;;;;20.63;15.65;;;;;;;;;;4990576;28;25092;-73
2023/09/16 02:04:22;;;;;;;22.70;15.18;;;;;;;;;;4990963;28;25073;-72
2023/09/16 02:06:48;;;;;;;24.50;16.63;;;;;;;;;;4990381;28;25063;-71
2023/09/16 02:09:14;;;;;;;22.73;15.95;;;;;;;;;;4991218;28;25126;-71
2023/09/16 02:11:40;;;;;;;23.75;17.27;;;;;;;;;;4990112;28;25064;-72
2023/09/16 02:14:08;;;;;;;19.92;15.75;;;;;;;;;;4993942;28;25102;-71
2023/09/16 02:16:34;;;;;;;20.98;15.32;;;;;;;;;;4998729;28;25095;-71
2023/09/16 02:19:00;;;;;;;24.48;17.35;;;;;;;;;;5002111;28;25085;-71
2023/09/16 02:21:26;;;;;;;22.20;16.05;;;;;;;;;;4993378;28;25070;-71
2023/09/16 02:23:52;;;;;;;21.85;16.27;;;;;;;;;;5000219;28;25094;-73
2023/09/16 02:26:18;;;;;;;21.35;16.73;;;;;;;;;;5003996;28;25048;-72
2023/09/16 02:28:44;;;;;;;23.13;16.83;;;;;;;;;;5000588;28;25116;-71
2023/09/16 02:31:10;;;;;;;21.35;16.00;;;;;;;;;;4998205;28;25061;-71
2023/09/16 02:33:36;;;;;;;24.88;18.08;;;;;;;;;;4999710;28;25093;-71
2023/09/16 02:36:03;;;;;;;21.58;16.73;;;;;;;;;;5003502;28;25055;-72
2023/09/16 02:38:29;;;;;;;22.40;15.98;;;;;;;;;;4990410;28;25142;-73
2023/09/16 02:40:55;;;;;;;27.20;17.48;;;;;;;;;;4991496;28;25144;-71
2023/09/16 02:43:21;;;;;;;25.63;17.67;;;;;;;;;;4991209;28;25072;-71
2023/09/16 02:45:47;;;;;;;23.00;17.85;;;;;;;;;;5001921;28;25108;-72
2023/09/16 02:48:17;;;;;;;25.38;17.50;;;;;;;;;;4991056;28;25057;-71
2023/09/16 02:50:45;;;;;;;23.77;18.75;;;;;;;;;;4991713;28;25051;-72
2023/09/16 02:53:11;;;;;;;24.75;19.02;;;;;;;;;;4985464;28;25083;-71
2023/09/16 02:55:37;;;;;;;27.40;18.50;;;;;;;;;;4989141;28;25148;-71
2023/09/16 02:58:04;;;;;;;30.10;18.70;;;;;;;;;;4994572;28;25046;-70
2023/09/16 03:00:30;;;;;;;27.02;17.65;;;;;;;;;;4995011;28;25073;-72
2023/09/16 03:02:56;;;;;;;27.85;18.38;;;;;;;;;;4995057;28;25131;-72
2023/09/16 03:05:22;;;;;;;23.92;17.92;;;;;;;;;;4993724;28;25076;-72
2023/09/16 03:07:50;;;;;;;27.13;18.92;;;;;;;;;;4992510;28;25063;-71
2023/09/16 03:10:16;;;;;;;33.95;19.75;;;;;;;;;;4995028;28;25072;-71
2023/09/16 03:12:42;;;;;;;24.52;19.08;;;;;;;;;;5001304;28;25109;-72
2023/09/16 03:15:08;;;;;;;29.30;19.83;;;;;;;;;;4995423;28;25159;-71
2023/09/16 03:17:34;;;;;;;25.08;18.48;;;;;;;;;;4996339;28;25088;-71
2023/09/16 03:20:00;;;;;;;27.73;19.02;;;;;;;;;;4994016;28;25087;-71
2023/09/16 03:22:26;;;;;;;24.70;18.20;;;;;;;;;;4995669;28;25053;-70
2023/09/16 03:24:52;;;;;;;22.77;17.05;;;;;;;;;;4994553;28;25068;-71
2023/09/16 03:27:18;;;;;;;23.75;18.77;;;;;;;;;;4994542;28;25062;-73
2023/09/16 03:29:44;;;;;;;27.23;19.00;;;;;;;;;;4993078;28;25125;-71
2023/09/16 03:32:10;;;;;;;24.92;19.30;;;;;;;;;;4995350;28;25077;-73
2023/09/16 03:34:36;;;;;;;25.50;17.15;;;;;;;;;;4992695;28;25109;-74
2023/09/16 03:37:02;;;;;;;26.00;19.35;;;;;;;;;;4993279;28;25078;-71
2023/09/16 03:39:28;;;;;;;22.92;18.98;;;;;;;;;;4998783;28;25166;-73
2023/09/16 03:41:54;;;;;;;30.33;20.80;;;;;;;;;;4995652;28;25065;-72
2023/09/16 03:44:20;;;;;;;25.52;18.50;;;;;;;;;;4996220;28;25062;-71
2023/09/16 03:46:49;;;;;;;26.63;18.65;;;;;;;;;;4998538;28;25066;-70
2023/09/16 03:49:15;;;;;;;26.23;19.00;;;;;;;;;;4991540;28;25061;-72
2023/09/16 03:51:41;;;;;;;26.85;19.42;;;;;;;;;;4998107;28;25068;-72
2023/09/16 03:54:07;;;;;;;31.98;20.90;;;;;;;;;;4994599;28;25054;-72
2023/09/16 03:56:34;;;;;;;25.75;19.23;;;;;;;;;;4993931;28;25057;-71
2023/09/16 03:59:00;;;;;;;27.52;21.15;;;;;;;;;;4997214;28;25059;-71
2023/09/16 04:01:26;;;;;;;26.77;19.67;;;;;;;;;;5001676;28;25094;-72
2023/09/16 04:03:54;;;;;;;27.13;20.35;;;;;;;;;;4991019;28;25110;-72
2023/09/16 04:06:20;;;;;;;26.55;19.77;;;;;;;;;;4988522;28;25084;-73
2023/09/16 04:08:46;;;;;;;24.70;19.45;;;;;;;;;;5000707;28;25146;-73
2023/09/16 04:11:13;;;;;;;27.55;21.55;;;;;;;;;;5004892;28;25083;-72
2023/09/16 04:13:39;;;;;;;28.08;20.73;;;;;;;;;;5001997;28;25059;-73
2023/09/16 04:16:05;;;;;;;32.67;21.90;;;;;;;;;;5002875;28;25160;-73
2023/09/16 04:18:31;;;;;;;31.52;20.13;;;;;;;;;;4992035;28;25097;-73
2023/09/16 04:20:58;;;;;;;27.33;21.45;;;;;;;;;;4998853;28;25052;-73
2023/09/16 04:23:24;;;;;;;28.20;20.10;;;;;;;;;;4992114;28;25057;-72
2023/09/16 04:25:56;;;;;;;29.45;21.83;;;;;;;;;;4994729;28;25049;-71
2023/09/16 04:28:23;;;;;;;30.80;22.00;;;;;;;;;;4990891;28;25065;-72
2023/09/16 04:30:50;;;;;;;32.83;21.33;;;;;;;;;;4993237;28;25085;-71
2023/09/16 04:33:16;;;;;;;29.45;21.90;;;;;;;;;;4992216;28;25061;-72
2023/09/16 04:35:44;;;;;;;29.55;21.90;;;;;;;;;;4997838;28;25049;-72
2023/09/16 04:38:10;;;;;;;30.20;23.17;;;;;;;;;;4992927;28;25141;-73
2023/09/16 04:40:36;;;;;;;30.27;21.13;;;;;;;;;;4994813;28;25020;-71
2023/09/16 04:43:03;;;;;;;27.73;21.58;;;;;;;;;;4992316;28;25061;-72
2023/09/16 04:45:29;;;;;;;33.28;22.35;;;;;;;;;;4992124;28;25086;-72
2023/09/16 04:47:56;;;;;;;34.33;23.40;;;;;;;;;;4995695;28;25068;-73
2023/09/16 04:50:22;;;;;;;30.38;22.63;;;;;;;;;;4995948;28;25074;-71
2023/09/16 04:52:48;;;;;;;28.13;22.70;;;;;;;;;;4988802;28;25053;-73
2023/09/16 04:55:14;;;;;;;31.00;21.77;;;;;;;;;;5001970;28;25057;-72
2023/09/16 04:57:41;;;;;;;31.75;23.65;;;;;;;;;;4993178;28;25058;-73
2023/09/16 05:00:07;;;;;;;33.20;24.42;;;;;;;;;;5001101;28;25059;-73
2023/09/16 05:02:33;;;;;;;31.90;23.52;;;;;;;;;;4997491;28;25065;-72
2023/09/16 05:05:00;;;;;;;32.70;23.70;;;;;;;;;;4990471;28;25090;-71
2023/09/16 05:07:26;;;;;;;30.27;22.90;;;;;;;;;;4991307;28;25051;-76
2023/09/16 05:09:52;;;;;;;37.30;23.75;;;;;;;;;;4996226;28;25055;-73
2023/09/16 05:12:18;;;;;;;34.70;23.40;;;;;;;;;;4990450;28;25085;-73
2023/09/16 05:14:46;;;;;;;31.55;23.00;;;;;;;;;;4992434;28;25068;-73
2023/09/16 05:17:12;;;;;;;33.67;24.23;;;;;;;;;;4992010;28;25144;-71
2023/09/16 05:19:37;;;;;;;30.85;23.52;;;;;;;;;;4990328;28;25149;-71
2023/09/16 05:22:04;;;;;;;35.33;24.85;;;;;;;;;;4994779;28;25072;-72
2023/09/16 05:24:32;;;;;;;34.92;23.83;;;;;;;;;;4997409;28;25065;-70
2023/09/16 05:26:59;;;;;;;34.85;24.48;;;;;;;;;;4994581;28;25084;-74
2023/09/16 05:29:25;;;;;;;33.03;24.50;;;;;;;;;;4982777;28;25129;-71
2023/09/16 05:31:53;;;;;;;31.85;23.35;;;;;;;;;;4990672;28;25063;-71
2023/09/16 05:34:19;;;;;;;33.47;24.17;;;;;;;;;;4990027;28;25058;-73
2023/09/16 05:36:45;;;;;;;28.60;23.30;;;;;;;;;;4991458;28;25077;-73
2023/09/16 05:39:11;;;;;;;35.03;25.08;;;;;;;;;;4991826;28;25081;-69
2023/09/16 05:41:38;;;;;;;32.83;24.73;;;;;;;;;;4995241;28;25077;-72
2023/09/16 05:44:04;;;;;;;32.17;24.17;;;;;;;;;;4990402;28;25070;-72
2023/09/16 05:46:30;;;;;;;32.03;23.45;;;;;;;;;;4990765;28;25074;-73
2023/09/16 05:49:06;;;;;;;31.08;23.98;;;;;;;;;;4999554;28;25071;-75
2023/09/16 05:51:32;;;;;;;35.65;24.10;;;;;;;;;;4997091;28;25147;-72
2023/09/16 05:53:58;;;;;;;35.58;24.00;;;;;;;;;;4996265;28;25053;-76
2023/09/16 05:56:24;;;;;;;34.28;24.50;;;;;;;;;;4995956;28;25120;-72
2023/09/16 05:58:50;;;;;;;33.63;21.73;;;;;;;;;;4997035;28;25151;-75
2023/09/16 06:01:16;;;;;;;28.77;22.27;;;;;;;;;;5015244;28;25058;-72
2023/09/16 06:03:42;;;;;;;35.70;24.83;;;;;;;;;;4998601;28;25151;-73
2023/09/16 06:06:08;;;;;;;33.50;24.48;;;;;;;;;;5001470;28;25109;-73
2023/09/16 06:08:35;;;;;;;38.38;24.05;;;;;;;;;;5010283;28;25074;-73
2023/09/16 06:11:01;;;;;;;38.58;25.65;;;;;;;;;;5015519;28;25068;-73
2023/09/16 06:13:27;;;;;;;32.38;24.23;;;;;;;;;;5009856;28;25087;-78
2023/09/16 06:15:53;;;;;;;32.70;23.40;;;;;;;;;;5010989;28;25089;-74
2023/09/16 06:18:19;;;;;;;30.88;23.45;;;;;;;;;;5000550;28;25139;-73
2023/09/16 06:20:45;;;;;;;32.17;23.77;;;;;;;;;;5011877;28;25171;-73
2023/09/16 06:23:11;;;;;;;34.85;23.63;;;;;;;;;;5012860;28;25076;-74
2023/09/16 06:25:38;;;;;;;34.80;23.50;;;;;;;;;;5016589;28;25090;-74
2023/09/16 06:28:04;;;;;;;33.25;23.85;;;;;;;;;;5011348;28;25069;-75
2023/09/16 06:30:30;;;;;;;33.58;24.50;;;;;;;;;;5004662;28;25160;-73
2023/09/16 06:32:57;;;;;;;33.15;23.05;;;;;;;;;;4999469;28;25088;-75
2023/09/16 06:35:23;;;;;;;31.48;24.05;;;;;;;;;;4988766;28;25141;-73
2023/09/16 06:37:52;;;;;;;30.70;21.85;;;;;;;;;;4992369;28;25060;-74
2023/09/16 06:40:18;;;;;;;29.92;24.05;;;;;;;;;;4992328;28;25061;-73
2023/09/16 06:42:44;;;;;;;34.55;24.05;;;;;;;;;;4993584;28;25137;-72
2023/09/16 06:45:11;;;;;;;30.33;23.65;;;;;;;;;;4990406;28;25139;-76
2023/09/16 06:47:37;;;;;;;30.65;22.13;;;;;;;;;;4995613;28;25088;-69
2023/09/16 06:50:04;;;;;;;28.58;22.08;;;;;;;;;;4992386;28;25059;-72
2023/09/16 06:52:30;;;;;;;27.58;21.60;;;;;;;;;;4992992;28;25055;-73
2023/09/16 06:54:56;;;;;;;34.78;22.75;;;;;;;;;;4992599;28;25090;-72
2023/09/16 06:57:22;;;;;;;28.73;21.60;;;;;;;;;;4992294;28;25111;-70
2023/09/16 06:59:48;;;;;;;29.08;21.55;;;;;;;;;;4994446;28;25181;-72
2023/09/16 07:02:15;;;;;;;28.20;19.58;;;;;;;;;;4995134;28;25069;-72
2023/09/16 07:04:41;;;;;;;33.55;21.40;;;;;;;;;;4994784;28;25117;-73
2023/09/16 07:07:07;;;;;;;29.50;21.05;;;;;;;;;;4995362;28;25052;-69
2023/09/16 07:09:33;;;;;;;30.77;21.55;;;;;;;;;;4994901;28;25051;-70
2023/09/16 07:11:59;;;;;;;27.92;20.92;;;;;;;;;;4995038;28;25087;-73
2023/09/16 07:14:25;;;;;;;25.70;18.90;;;;;;;;;;4993507;28;25059;-71
2023/09/16 07:16:51;;;;;;;26.73;20.20;;;;;;;;;;4994569;28;25065;-74
2023/09/16 07:19:17;;;;;;;26.80;20.60;;;;;;;;;;4997877;28;25115;-72
2023/09/16 07:21:43;;;;;;;26.83;19.98;;;;;;;;;;4989451;28;25078;-73
2023/09/16 07:24:10;;;;;;;27.25;21.10;;;;;;;;;;4995893;28;25076;-74
2023/09/16 07:26:36;;;;;;;31.77;20.60;;;;;;;;;;4991941;28;25092;-72
2023/09/16 07:29:02;;;;;;;31.15;20.25;;;;;;;;;;4991445;28;25063;-71
2023/09/16 07:31:28;;;;;;;30.08;20.33;;;;;;;;;;4994476;28;25062;-73
2023/09/16 07:33:54;;;;;;;27.60;20.38;;;;;;;;;;4997103;28;25138;-73
2023/09/16 07:36:20;;;;;;;26.92;20.25;;;;;;;;;;4995705;28;25185;-73
2023/09/16 07:38:46;;;;;;;24.08;19.23;;;;;;;;;;4989891;28;25156;-72
2023/09/16 07:41:12;;;;;;;30.00;20.40;;;;;;;;;;4993288;28;25136;-73
2023/09/16 07:43:38;;;;;;;25.58;19.40;;;;;;;;;;4997013;28;25094;-72
2023/09/16 07:46:04;;;;;;;27.13;18.63;;;;;;;;;;5004703;28;25100;-72
2023/09/16 07:48:31;;;;;;;26.83;19.38;;;;;;;;;;5007095;28;25096;-74
2023/09/16 07:50:57;;;;;;;25.25;17.30;;;;;;;;;;5004420;28;25074;-75
2023/09/16 07:53:23;;;;;;;24.30;17.77;;;;;;;;;;4989673;28;25065;-74
2023/09/16 07:55:49;;;;;;;27.30;16.80;;;;;;;;;;4988690;28;25056;-73
2023/09/16 07:58:15;;;;;;;25.15;17.63;;;;;;;;;;4984457;28;25109;-73
2023/09/16 08:00:41;;;;;;;22.88;16.55;;;;;;;;;;4987243;28;25068;-73
2023/09/16 08:03:07;;;;;;;29.70;20.23;;;;;;;;;;4986871;28;25077;-73
2023/09/16 08:05:33;;;;;;;29.15;18.60;;;;;;;;;;4991338;28;25094;-72
2023/09/16 08:07:59;;;;;;;24.75;17.08;;;;;;;;;;4990323;28;25063;-72
2023/09/16 08:10:25;;;;;;;20.55;16.15;;;;;;;;;;4985467;28;25067;-71
2023/09/16 08:12:50;;;;;;;21.40;16.50;;;;;;;;;;4991013;28;25048;-73
2023/09/16 08:15:17;;;;;;;22.02;15.13;;;;;;;;;;4993303;28;25076;-72
2023/09/16 08:17:43;;;;;;;20.48;15.32;;;;;;;;;;4989181;28;25056;-75
2023/09/16 08:20:09;;;;;;;21.48;15.32;;;;;;;;;;4991752;28;25053;-71
2023/09/16 08:22:36;;;;;;;18.67;13.77;;;;;;;;;;4990408;28;25057;-72
2023/09/16 08:25:04;;;;;;;19.88;13.95;;;;;;;;;;4989609;28;25089;-72
2023/09/16 08:27:30;;;;;;;21.02;14.18;;;;;;;;;;4991940;28;25132;-73
2023/09/16 08:29:56;;;;;;;18.13;13.63;;;;;;;;;;4995629;28;25069;-73
2023/09/16 08:32:24;;;;;;;21.85;13.95;;;;;;;;;;4992651;28;25157;-72
2023/09/16 08:34:50;;;;;;;19.20;14.20;;;;;;;;;;4989575;28;25073;-72
2023/09/16 08:37:17;;;;;;;16.15;13.60;;;;;;;;;;4992098;28;25084;-70
2023/09/16 08:39:43;;;;;;;20.00;14.93;;;;;;;;;;4992440;28;25051;-73
2023/09/16 08:42:13;;;;;;;22.90;14.93;;;;;;;;;;4986165;28;25098;-72
2023/09/16 08:44:43;;;;;;;19.95;15.27;;;;;;;;;;4994233;28;25063;-72
2023/09/16 08:47:16;;;;;;;16.88;13.55;;;;;;;;;;4993601;28;25079;-71
2023/09/16 08:49:46;;;;;;;14.88;12.00;;;;;;;;;;4994281;28;25044;-73
2023/09/16 08:52:15;;;;;;;17.35;12.25;;;;;;;;;;4993106;28;25092;-71
2023/09/16 08:54:42;;;;;;;17.13;13.35;;;;;;;;;;4994637;28;25067;-72
2023/09/16 08:57:08;;;;;;;18.40;13.05;;;;;;;;;;4995519;28;25178;-70
2023/09/16 08:59:36;;;;;;;20.17;12.18;;;;;;;;;;4989553;28;25072;-72
2023/09/16 09:02:02;;;;;;;16.40;11.80;;;;;;;;;;4990225;28;25061;-72
2023/09/16 09:04:28;;;;;;;13.25;10.80;;;;;;;;;;4992630;28;25059;-73
2023/09/16 09:06:55;;;;;;;14.65;10.18;;;;;;;;;;4993663;28;25063;-72
2023/09/16 09:09:21;;;;;;;12.93;9.63;;;;;;;;;;4992892;28;25119;-74
2023/09/16 09:11:47;;;;;;;14.50;9.38;;;;;;;;;;4989937;28;25072;-71
2023/09/16 09:14:14;;;;;;;16.27;10.82;;;;;;;;;;4984013;28;25114;-74
2023/09/16 09:16:43;;;;;;;13.48;9.85;;;;;;;;;;4990875;28;25153;-73
2023/09/16 09:19:11;;;;;;;15.55;10.60;;;;;;;;;;4986112;28;25092;-74
2023/09/16 09:21:37;;;;;;;13.82;9.13;;;;;;;;;;4988147;28;25063;-74
2023/09/16 09:24:03;;;;;;;12.45;9.48;;;;;;;;;;4992244;28;25060;-73
2023/09/16 09:26:29;;;;;;;11.98;9.10;;;;;;;;;;4987922;28;25147;-74
2023/09/16 09:28:58;;;;;;;11.98;8.77;;;;;;;;;;4991794;28;25054;-73
2023/09/16 09:31:24;;;;;;;13.82;8.80;;;;;;;;;;4990505;28;25097;-72
2023/09/16 09:33:51;;;;;;;10.65;8.23;;;;;;;;;;4989429;28;25117;-71
2023/09/16 09:36:18;;;;;;;11.20;8.40;;;;;;;;;;4991854;28;25126;-73
2023/09/16 09:38:47;;;;;;;18.88;10.20;;;;;;;;;;4988422;28;25134;-71
2023/09/16 09:41:14;;;;;;;9.77;8.00;;;;;;;;;;4989497;28;25117;-71
2023/09/16 09:43:40;;;;;;;11.27;7.97;;;;;;;;;;4986452;28;25067;-72
2023/09/16 09:46:06;;;;;;;10.73;7.47;;;;;;;;;;4991970;28;25095;-71
2023/09/16 09:48:33;;;;;;;11.50;7.55;;;;;;;;;;4990682;28;25139;-72
2023/09/16 09:51:00;;;;;;;10.25;6.72;;;;;;;;;;4992283;28;25122;-73
2023/09/16 09:53:26;;;;;;;8.77;6.10;;;;;;;;;;4987736;28;25075;-69
2023/09/16 09:55:53;;;;;;;11.45;7.25;;;;;;;;;;4986512;28;25090;-72
2023/09/16 09:58:19;;;;;;;8.07;6.85;;;;;;;;;;4992372;28;25064;-72
2023/09/16 10:00:46;;;;;;;10.63;7.38;;;;;;;;;;4989297;28;25084;-71
2023/09/16 10:03:13;;;;;;;10.43;7.43;;;;;;;;;;4991542;28;25067;-72
2023/09/16 10:05:39;;;;;;;13.80;6.75;;;;;;;;;;4988132;28;25086;-72
2023/09/16 10:08:05;;;;;;;11.60;7.07;;;;;;;;;;4986477;28;25069;-72
2023/09/16 10:10:31;;;;;;;8.70;6.18;;;;;;;;;;4987375;28;25058;-71
2023/09/16 10:12:58;;;;;;;8.98;6.13;;;;;;;;;;4984163;28;25061;-73
2023/09/16 10:15:25;;;;;;;8.18;6.20;;;;;;;;;;4994919;28;25079;-71
2023/09/16 10:17:52;;;;;;;8.35;5.78;;;;;;;;;;4987896;28;25071;-70
2023/09/16 10:20:18;;;;;;;9.23;5.78;;;;;;;;;;4985621;28;25060;-73
2023/09/16 10:22:45;;;;;;;8.73;5.53;;;;;;;;;;4987094;28;25079;-72
2023/09/16 10:25:14;;;;;;;6.88;4.63;;;;;;;;;;4979927;28;25065;-72
2023/09/16 10:27:45;;;;;;;6.03;4.50;;;;;;;;;;4988687;28;25095;-71
2023/09/16 10:30:13;;;;;;;4.47;4.07;;;;;;;;;;4990261;28;25196;-73
2023/09/16 10:32:40;;;;;;;7.78;4.13;;;;;;;;;;4982390;28;25110;-71
2023/09/16 10:35:07;;;;;;;5.55;3.70;;;;;;;;;;4986257;28;25096;-70
2023/09/16 10:37:33;;;;;;;8.45;4.20;;;;;;;;;;4986728;28;25117;-72
2023/09/16 10:39:59;;;;;;;5.40;3.97;;;;;;;;;;4986636;28;25087;-74
2023/09/16 10:42:26;;;;;;;6.28;3.22;;;;;;;;;;4990705;28;25137;-72
2023/09/16 10:44:52;;;;;;;6.28;3.58;;;;;;;;;;4979682;28;25102;-73
2023/09/16 10:47:18;;;;;;;7.25;4.00;;;;;;;;;;4989381;28;25097;-73
2023/09/16 10:49:44;;;;;;;5.20;3.15;;;;;;;;;;4988557;28;25057;-71
2023/09/16 10:52:16;;;;;;;7.57;3.90;;;;;;;;;;4968979;28;25125;-72
2023/09/16 10:55:00;;;;;;;5.28;3.35;;;;;;;;;;4986078;28;25055;-72
2023/09/16 10:57:29;;;;;;;4.85;3.38;;;;;;;;;;4988470;28;25125;-78
2023/09/16 10:59:56;;;;;;;8.60;3.30;;;;;;;;;;4988912;28;25082;-77
2023/09/16 11:02:29;;;;;;;5.10;3.35;;;;;;;;;;4998004;28;25079;-77
2023/09/16 11:04:55;;;;;;;6.30;3.30;;;;;;;;;;4988090;28;25080;-77
2023/09/16 11:07:22;;;;;;;5.22;4.28;;;;;;;;;;5007546;28;25089;-78
2023/09/16 11:09:48;;;;;;;9.00;4.45;;;;;;;;;;4995653;28;25107;-77
2023/09/16 11:12:15;;;;;;;7.05;4.32;;;;;;;;;;4998175;28;25063;-77
2023/09/16 11:14:41;;;;;;;4.78;3.40;;;;;;;;;;4995033;28;25133;-79
2023/09/16 11:17:11;;;;;;;5.68;3.95;;;;;;;;;;5000552;28;25073;-76
2023/09/16 11:19:37;;;;;;;4.75;3.78;;;;;;;;;;5001328;28;25071;-78
2023/09/16 11:22:03;;;;;;;4.38;3.53;;;;;;;;;;5006523;28;25060;-79
2023/09/16 11:24:29;;;;;;;5.40;3.60;;;;;;;;;;5001828;28;25079;-79
2023/09/16 11:26:59;;;;;;;5.10;3.85;;;;;;;;;;4998302;28;25064;-80
2023/09/16 11:29:28;;;;;;;7.45;4.45;;;;;;;;;;4998496;28;25057;-78
2023/09/16 11:31:54;;;;;;;6.03;3.65;;;;;;;;;;4996798;28;25068;-78
2023/09/16 11:34:21;;;;;;;4.50;3.88;;;;;;;;;;4994471;28;25055;-78
2023/09/16 11:36:54;;;;;;;5.40;3.83;;;;;;;;;;4993239;28;25071;-77
2023/09/16 11:39:40;;;;;;;4.30;2.45;;;;;;;;;;4994153;28;25118;-77
2023/09/16 11:42:10;;;;;;;3.15;2.13;;;;;;;;;;4996121;28;25071;-77
2023/09/16 11:44:36;;;;;;;3.30;2.15;;;;;;;;;;5000834;28;25090;-77
2023/09/16 11:47:03;;;;;;;2.95;2.50;;;;;;;;;;4996404;28;25128;-78
2023/09/16 11:49:32;;;;;;;4.18;2.28;;;;;;;;;;4992210;28;25060;-75
2023/09/16 11:51:59;;;;;;;5.72;2.30;;;;;;;;;;4999477;28;25112;-77
2023/09/16 11:54:25;;;;;;;6.35;3.55;;;;;;;;;;4992337;28;25057;-77
2023/09/16 11:56:51;;;;;;;2.95;2.33;;;;;;;;;;4996336;28;25067;-78
2023/09/16 11:59:18;;;;;;;5.95;2.85;;;;;;;;;;4992497;28;25076;-77
2023/09/16 12:01:44;;;;;;;4.68;2.53;;;;;;;;;;4994136;28;25068;-78
2023/09/16 12:04:11;;;;;;;2.95;2.53;;;;;;;;;;4999722;28;25086;-77
2023/09/16 12:06:38;;;;;;;4.00;1.98;;;;;;;;;;4998081;28;25071;-76
2023/09/16 12:09:05;;;;;;;5.10;2.30;;;;;;;;;;4999790;28;25109;-77
2023/09/16 12:11:32;;;;;;;3.60;2.35;;;;;;;;;;5007584;28;25046;-77
2023/09/16 12:14:00;;;;;;;2.33;2.13;;;;;;;;;;5008962;28;25147;-77
2023/09/16 12:16:26;;;;;;;5.80;2.28;;;;;;;;;;5008157;28;25047;-78
2023/09/16 12:18:52;;;;;;;3.78;2.17;;;;;;;;;;5007614;28;25071;-77
2023/09/16 12:21:18;;;;;;;5.57;2.30;;;;;;;;;;5003949;28;25099;-76
2023/09/16 12:23:49;;;;;;;4.03;2.45;;;;;;;;;;4993214;28;25050;-74
2023/09/16 12:26:15;;;;;;;4.00;2.33;;;;;;;;;;4992926;28;25082;-74
2023/09/16 12:28:41;;;;;;;3.03;2.25;;;;;;;;;;4991902;28;25072;-75
2023/09/16 12:31:11;;;;;;;5.43;2.80;;;;;;;;;;4999730;28;25068;-74
2023/09/16 12:33:48;;;;;;;5.93;3.00;;;;;;;;;;4993099;28;25055;-77
2023/09/16 12:36:22;;;;;;;4.70;2.65;;;;;;;;;;4989906;28;25067;-77
2023/09/16 12:38:49;;;;;;;4.55;2.67;;;;;;;;;;4989465;28;25081;-77
2023/09/16 12:41:15;;;;;;;3.53;2.63;;;;;;;;;;4984689;28;25152;-76
2023/09/16 12:43:42;;;;;;;5.35;2.53;;;;;;;;;;4988348;28;25071;-76
2023/09/16 12:46:09;;;;;;;7.88;2.78;;;;;;;;;;4993131;28;25070;-74
2023/09/16 12:48:36;;;;;;;5.40;2.67;;;;;;;;;;4995668;28;25087;-78
2023/09/16 12:51:02;;;;;;;3.90;2.70;;;;;;;;;;4993681;28;25096;-77
2023/09/16 12:53:28;;;;;;;4.78;3.65;;;;;;;;;;4992020;28;25118;-76
2023/09/16 12:55:56;;;;;;;6.22;3.40;;;;;;;;;;4992549;28;25161;-77
2023/09/16 12:58:23;;;;;;;5.95;2.67;;;;;;;;;;4995837;28;25113;-78
2023/09/16 13:00:49;;;;;;;5.07;2.70;;;;;;;;;;5000637;28;25053;-75
2023/09/16 13:03:15;;;;;;;4.63;3.42;;;;;;;;;;4989499;28;25089;-75
2023/09/16 13:05:42;;;;;;;5.05;3.08;;;;;;;;;;4999703;28;25066;-77
2023/09/16 13:08:08;;;;;;;6.07;3.40;;;;;;;;;;4987797;28;25073;-76
2023/09/16 13:10:35;;;;;;;7.35;3.38;;;;;;;;;;4991320;28;25155;-78
2023/09/16 13:13:01;;;;;;;11.57;4.28;;;;;;;;;;4990235;28;25073;-76
2023/09/16 13:15:27;;;;;;;7.72;3.50;;;;;;;;;;4993414;28;25055;-78
2023/09/16 13:17:59;;;;;;;5.50;3.72;;;;;;;;;;4991093;28;25092;-76
2023/09/16 13:20:26;;;;;;;6.50;4.40;;;;;;;;;;4990932;28;25066;-76
2023/09/16 13:22:56;;;;;;;7.00;4.30;;;;;;;;;;4995335;28;25064;-74
2023/09/16 13:25:28;;;;;;;4.82;3.83;;;;;;;;;;4987534;28;25062;-76
2023/09/16 13:27:54;;;;;;;;;;;;;;;;;;4991026;28;25063;-75
2023/09/16 13:30:20;;;;;;;4.13;3.38;;;;;;;;;;4991226;28;24086;-75
2023/09/16 13:32:51;;;;;;;5.43;3.75;;;;;;;;;;4996246;28;25054;-78
2023/09/16 13:35:17;;;;;;;6.25;3.50;;;;;;;;;;4991080;28;25058;-75
2023/09/16 13:37:43;;;;;;;5.15;3.63;;;;;;;;;;4992638;28;25050;-76
2023/09/16 13:40:10;;;;;;;5.88;3.53;;;;;;;;;;4992479;28;25118;-75
2023/09/16 13:42:36;;;;;;;5.45;3.33;;;;;;;;;;4992394;28;25079;-77
2023/09/16 13:45:02;;;;;;;4.93;3.15;;;;;;;;;;4990704;28;25075;-76
2023/09/16 13:47:28;;;;;;;3.78;3.10;;;;;;;;;;4990146;28;25054;-78
2023/09/16 13:49:54;;;;;;;5.45;4.00;;;;;;;;;;4989348;28;25058;-78
2023/09/16 13:52:20;;;;;;;5.70;3.80;;;;;;;;;;4988528;28;25063;-77
2023/09/16 13:54:46;;;;;;;6.72;3.50;;;;;;;;;;4988509;28;25071;-78
2023/09/16 13:57:14;;;;;;;4.63;3.20;;;;;;;;;;4995993;28;25056;-75
2023/09/16 13:59:40;;;;;;;4.80;3.70;;;;;;;;;;4986260;28;25099;-76
2023/09/16 14:02:06;;;;;;;5.13;3.70;;;;;;;;;;4984743;28;25061;-74
2023/09/16 14:04:32;;;;;;;5.78;3.80;;;;;;;;;;4987373;28;25053;-76
2023/09/16 14:06:58;;;;;;;6.05;3.60;;;;;;;;;;4990653;28;25074;-77
2023/09/16 14:09:24;;;;;;;6.47;3.65;;;;;;;;;;4991081;28;25066;-75
2023/09/16 14:11:50;;;;;;;7.65;3.75;;;;;;;;;;4991781;28;25074;-77
2023/09/16 14:14:16;;;;;;;6.45;4.05;;;;;;;;;;4990128;28;25076;-76
2023/09/16 14:16:42;;;;;;;6.18;4.15;;;;;;;;;;4989543;28;25074;-74
2023/09/16 14:19:08;;;;;;;5.28;3.38;;;;;;;;;;4987148;28;25066;-76
2023/09/16 14:21:34;;;;;;;6.65;4.25;;;;;;;;;;4989977;28;25082;-77
2023/09/16 14:24:00;;;;;;;6.15;4.70;;;;;;;;;;4996675;28;25076;-76